Time;durP1;ratioP1;P1;durP2;ratioP2;P2;SDS_P1;SDS_P2;PMS_P1;PMS_P2;Temp;Humidity;BMP_temperature;BMP_pressure;BME280_temperature;BME280_humidity;BME280_pressure;Samples;Min_cycle;Max_cycle;Signal;HPM_P1;HPM_P2
2022/04/05 00:00:20;;;;;;;16.60;10.43;;;2.40;99.90;;;;;;4438868;32;20253;-71
2022/04/05 00:02:47;;;;;;;17.90;11.47;;;2.40;99.90;;;;;;4439772;32;20192;-71
2022/04/05 00:05:14;;;;;;;16.30;10.87;;;2.40;99.90;;;;;;4437862;32;20219;-71
2022/04/05 00:07:42;;;;;;;15.80;10.63;;;2.40;99.90;;;;;;4438389;32;20167;-71
2022/04/05 00:10:09;;;;;;;17.37;11.30;;;2.40;99.90;;;;;;4438294;32;20181;-71
2022/04/05 00:12:37;;;;;;;17.77;12.50;;;2.40;99.90;;;;;;4438136;32;20608;-71
2022/04/05 00:15:05;;;;;;;19.97;12.47;;;2.40;99.90;;;;;;4438260;32;20181;-71
2022/04/05 00:17:33;;;;;;;16.47;11.67;;;2.40;99.90;;;;;;4439563;32;20208;-71
2022/04/05 00:20:00;;;;;;;15.93;10.93;;;2.40;99.90;;;;;;4438207;32;20178;-71
2022/04/05 00:22:27;;;;;;;17.67;11.23;;;2.40;99.90;;;;;;4438856;32;20201;-70
2022/04/05 00:24:55;;;;;;;17.40;11.53;;;2.40;99.90;;;;;;4438359;32;20222;-71
2022/04/05 00:27:22;;;;;;;18.27;11.93;;;2.40;99.90;;;;;;4437472;32;20473;-70
2022/04/05 00:29:50;;;;;;;18.80;11.87;;;2.40;99.90;;;;;;4438821;32;20194;-71
2022/04/05 00:32:17;;;;;;;17.90;12.00;;;2.40;99.90;;;;;;4437892;32;20218;-71
2022/04/05 00:34:44;;;;;;;15.77;11.40;;;2.40;99.90;;;;;;4438650;32;20170;-71
2022/04/05 00:37:15;;;;;;;18.40;11.60;;;2.40;99.90;;;;;;4439109;32;20209;-71
2022/04/05 00:39:42;;;;;;;15.63;11.67;;;2.40;99.90;;;;;;4438846;32;20170;-71
2022/04/05 00:42:11;;;;;;;15.97;11.80;;;2.40;99.90;;;;;;4438268;32;20189;-71
2022/04/05 00:44:38;;;;;;;15.20;11.60;;;2.50;99.90;;;;;;4438905;32;20501;-71
2022/04/05 00:47:17;;;;;;;17.57;11.97;;;2.40;99.90;;;;;;4439324;32;20553;-71
2022/04/05 00:49:46;;;;;;;17.07;11.87;;;2.50;99.90;;;;;;4440976;32;20146;-71
2022/04/05 00:52:15;;;;;;;19.53;11.70;;;2.50;99.90;;;;;;4437807;32;20459;-71
2022/04/05 00:54:45;;;;;;;15.93;11.93;;;2.50;99.90;;;;;;4438267;32;20178;-71
2022/04/05 00:57:16;;;;;;;15.27;11.50;;;2.50;99.90;;;;;;4437934;32;20175;-71
2022/04/05 00:59:49;;;;;;;17.30;11.97;;;2.40;99.90;;;;;;4439686;32;20186;-71
2022/04/05 01:02:20;;;;;;;17.23;12.03;;;2.40;99.90;;;;;;4438405;32;20174;-71
2022/04/05 01:04:49;;;;;;;17.73;11.93;;;2.30;99.90;;;;;;4439426;32;20409;-71
2022/04/05 01:07:23;;;;;;;16.53;12.37;;;2.30;99.90;;;;;;4438464;32;20190;-71
2022/04/05 01:09:54;;;;;;;16.20;11.63;;;2.30;99.90;;;;;;4437810;32;20580;-71
2022/04/05 01:12:22;;;;;;;16.20;11.83;;;2.30;99.90;;;;;;4437962;32;20208;-71
2022/04/05 01:14:51;;;;;;;18.13;12.20;;;2.30;99.90;;;;;;4438119;32;20536;-71
2022/04/05 01:17:18;;;;;;;17.27;11.73;;;2.30;99.90;;;;;;4441539;32;20215;-71
2022/04/05 01:19:48;;;;;;;17.13;11.67;;;2.30;99.90;;;;;;4441911;32;20425;-71
2022/04/05 01:22:16;;;;;;;16.87;11.97;;;2.30;99.90;;;;;;4441005;32;20254;-71
2022/04/05 01:24:43;;;;;;;16.23;11.83;;;2.30;99.90;;;;;;4442136;32;20173;-71
2022/04/05 01:27:17;;;;;;;14.97;11.80;;;2.30;99.90;;;;;;4441674;32;20201;-71
2022/04/05 01:29:46;;;;;;;15.80;10.77;;;2.40;99.90;;;;;;4442408;32;20138;-71
2022/04/05 01:32:14;;;;;;;15.63;11.30;;;2.40;99.90;;;;;;4440436;32;20194;-71
2022/04/05 01:34:41;;;;;;;15.00;11.23;;;2.40;99.90;;;;;;4441618;32;20409;-71
2022/04/05 01:37:10;;;;;;;16.20;11.53;;;2.30;99.90;;;;;;4440396;32;20202;-71
2022/04/05 01:39:39;;;;;;;17.07;12.10;;;2.30;99.90;;;;;;4441967;32;20175;-71
2022/04/05 01:42:12;;;;;;;15.03;11.43;;;2.30;99.90;;;;;;4441334;32;20175;-71
2022/04/05 01:44:41;;;;;;;16.87;12.40;;;2.30;99.90;;;;;;4441431;32;20143;-71
2022/04/05 01:47:11;;;;;;;16.83;12.23;;;2.30;99.90;;;;;;4439983;32;20235;-71
2022/04/05 01:49:39;;;;;;;17.30;12.40;;;2.30;99.90;;;;;;4440027;32;20206;-71
2022/04/05 01:52:07;;;;;;;16.37;12.43;;;2.40;99.90;;;;;;4440182;32;20170;-71
2022/04/05 01:54:34;;;;;;;17.90;13.00;;;2.40;99.90;;;;;;4442025;32;20142;-71
2022/04/05 01:57:01;;;;;;;16.87;12.77;;;2.40;99.90;;;;;;4439966;32;20174;-71
2022/04/05 01:59:31;;;;;;;17.07;12.33;;;2.50;99.90;;;;;;4442499;32;20186;-71
2022/04/05 02:01:58;;;;;;;18.53;12.93;;;2.50;99.90;;;;;;4440997;32;20178;-71
2022/04/05 02:04:25;;;;;;;17.20;12.60;;;2.50;99.90;;;;;;4441851;32;20169;-71
2022/04/05 02:06:52;;;;;;;18.00;12.77;;;2.50;99.90;;;;;;4439901;32;20200;-71
2022/04/05 02:09:19;;;;;;;19.10;13.30;;;2.50;99.90;;;;;;4441643;32;20202;-71
2022/04/05 02:11:47;;;;;;;17.67;12.97;;;2.50;99.90;;;;;;4441968;32;20202;-71
2022/04/05 02:14:16;;;;;;;19.87;13.83;;;2.50;99.90;;;;;;4442183;32;20164;-71
2022/04/05 02:16:43;;;;;;;20.03;13.67;;;2.50;99.90;;;;;;4439900;32;20186;-71
2022/04/05 02:19:11;;;;;;;19.27;14.00;;;2.50;99.90;;;;;;4439985;32;20259;-71
2022/04/05 02:21:38;;;;;;;20.60;13.73;;;2.50;99.90;;;;;;4440879;32;20225;-71
2022/04/05 02:24:05;;;;;;;18.57;13.67;;;2.50;99.90;;;;;;4440430;32;20233;-70
2022/04/05 02:26:32;;;;;;;19.23;13.93;;;2.50;99.90;;;;;;4439454;32;20461;-71
2022/04/05 02:29:00;;;;;;;20.63;14.17;;;2.50;99.90;;;;;;4439450;32;20174;-71
2022/04/05 02:31:28;;;;;;;20.03;14.00;;;2.50;99.90;;;;;;4441413;32;20238;-71
2022/04/05 02:33:55;;;;;;;17.97;13.23;;;2.50;99.90;;;;;;4441974;32;20147;-71
2022/04/05 02:36:22;;;;;;;19.97;13.67;;;2.50;99.90;;;;;;4440524;32;20226;-71
2022/04/05 02:38:50;;;;;;;18.57;13.43;;;2.50;99.90;;;;;;4439942;32;20197;-71
2022/04/05 02:41:17;;;;;;;18.63;12.97;;;2.60;99.90;;;;;;4439179;32;20190;-71
2022/04/05 02:43:44;;;;;;;19.63;13.60;;;2.60;99.90;;;;;;4439465;32;20460;-71
2022/04/05 02:46:12;;;;;;;19.50;13.23;;;2.60;99.90;;;;;;4441083;32;20186;-71
2022/04/05 02:48:43;;;;;;;20.63;14.30;;;2.60;99.90;;;;;;4439360;32;20556;-71
2022/04/05 02:51:15;;;;;;;20.97;13.93;;;2.60;99.90;;;;;;4439465;32;20234;-71
2022/04/05 02:53:43;;;;;;;20.17;13.50;;;2.60;99.90;;;;;;4439373;32;20242;-71
2022/04/05 02:56:10;;;;;;;19.57;13.37;;;2.60;99.90;;;;;;4439037;32;20191;-71
2022/04/05 02:58:38;;;;;;;19.50;13.97;;;2.70;99.90;;;;;;4439921;32;20231;-71
2022/04/05 03:01:05;;;;;;;20.83;14.10;;;2.70;99.90;;;;;;4438974;32;20175;-71
2022/04/05 03:03:33;;;;;;;20.17;13.53;;;2.70;99.90;;;;;;4439435;32;20174;-71
2022/04/05 03:06:01;;;;;;;18.07;13.27;;;2.70;99.90;;;;;;4439147;32;20544;-71
2022/04/05 03:08:28;;;;;;;19.13;13.10;;;2.80;99.90;;;;;;4439706;32;20230;-71
2022/04/05 03:10:55;;;;;;;19.77;13.67;;;2.80;99.90;;;;;;4439847;32;20255;-71
2022/04/05 03:13:23;;;;;;;19.27;13.47;;;2.90;99.90;;;;;;4440300;32;20201;-71
2022/04/05 03:15:51;;;;;;;19.43;13.37;;;2.90;99.90;;;;;;4439234;32;20166;-71
2022/04/05 03:18:18;;;;;;;17.50;12.87;;;2.90;99.90;;;;;;4440968;32;20222;-71
2022/04/05 03:20:45;;;;;;;21.87;13.80;;;3.00;99.90;;;;;;4439112;32;20183;-71
2022/04/05 03:23:12;;;;;;;18.97;13.97;;;3.00;99.90;;;;;;4439146;32;20219;-71
2022/04/05 03:25:39;;;;;;;20.53;14.03;;;3.00;99.90;;;;;;4439093;32;20175;-71
2022/04/05 03:28:07;;;;;;;22.77;14.17;;;3.10;99.90;;;;;;4440096;32;20171;-71
2022/04/05 03:30:34;;;;;;;19.17;13.63;;;3.10;99.90;;;;;;4440239;32;20202;-71
2022/04/05 03:33:01;;;;;;;19.00;13.03;;;3.20;99.90;;;;;;4439788;32;20235;-71
2022/04/05 03:35:29;;;;;;;19.47;13.67;;;3.20;99.90;;;;;;4439119;32;20228;-70
2022/04/05 03:37:59;;;;;;;20.17;13.33;;;3.20;99.90;;;;;;4439155;32;20229;-71
2022/04/05 03:40:28;;;;;;;19.47;13.77;;;3.20;99.90;;;;;;4438662;32;20233;-71
2022/04/05 03:42:55;;;;;;;19.93;14.13;;;3.30;99.90;;;;;;4438805;32;20178;-71
2022/04/05 03:45:22;;;;;;;18.40;13.77;;;3.30;99.90;;;;;;4440003;32;20145;-71
2022/04/05 03:47:50;;;;;;;21.57;14.50;;;3.30;99.90;;;;;;4438479;32;20213;-71
2022/04/05 03:50:18;;;;;;;19.80;14.03;;;3.30;99.90;;;;;;4440373;32;20173;-71
2022/04/05 03:52:45;;;;;;;22.40;15.10;;;3.30;99.90;;;;;;4439019;32;20253;-71
2022/04/05 03:55:12;;;;;;;19.97;13.97;;;3.30;99.90;;;;;;4439466;32;20178;-71
2022/04/05 03:57:40;;;;;;;21.30;14.57;;;3.30;99.90;;;;;;4438386;32;20175;-71
2022/04/05 04:00:08;;;;;;;20.67;14.50;;;3.40;99.90;;;;;;4440203;32;20212;-71
2022/04/05 04:02:36;;;;;;;19.70;14.33;;;3.40;99.90;;;;;;4439727;32;20135;-71
2022/04/05 04:05:04;;;;;;;21.30;14.87;;;3.50;99.90;;;;;;4438914;32;20238;-71
2022/04/05 04:07:36;;;;;;;17.93;12.93;;;3.40;99.90;;;;;;4440821;32;20154;-71
2022/04/05 04:10:04;;;;;;;20.50;14.10;;;3.50;99.90;;;;;;4438195;32;20213;-71
2022/04/05 04:12:32;;;;;;;20.23;14.20;;;3.50;99.90;;;;;;4438102;32;20221;-71
2022/04/05 04:14:59;;;;;;;20.30;13.87;;;3.50;99.90;;;;;;4440256;32;20192;-71
2022/04/05 04:17:27;;;;;;;20.13;13.87;;;3.50;99.90;;;;;;4440119;32;20254;-71
2022/04/05 04:19:57;;;;;;;18.80;13.50;;;3.60;99.90;;;;;;4438181;32;20243;-71
2022/04/05 04:22:26;;;;;;;20.63;14.00;;;3.60;99.90;;;;;;4439642;32;20170;-71
2022/04/05 04:24:56;;;;;;;19.90;14.67;;;3.60;99.90;;;;;;4438722;32;20228;-71
2022/04/05 04:27:24;;;;;;;19.20;14.10;;;3.60;99.90;;;;;;4439305;32;20174;-71
2022/04/05 04:29:52;;;;;;;19.10;13.83;;;3.70;99.90;;;;;;4438239;32;20226;-71
2022/04/05 04:32:20;;;;;;;19.23;14.13;;;3.70;99.90;;;;;;4438025;32;20207;-71
2022/04/05 04:34:47;;;;;;;19.70;14.33;;;3.80;99.90;;;;;;4438424;32;20180;-71
2022/04/05 04:37:15;;;;;;;19.47;13.67;;;3.80;99.90;;;;;;4441612;32;20204;-72
2022/04/05 04:39:45;;;;;;;18.27;14.00;;;3.80;99.90;;;;;;4439499;32;20168;-71
2022/04/05 04:42:12;;;;;;;19.30;14.20;;;3.80;99.90;;;;;;4437897;32;20177;-72
2022/04/05 04:44:40;;;;;;;18.50;13.77;;;3.90;99.90;;;;;;4439224;32;20211;-72
2022/04/05 04:47:07;;;;;;;18.97;13.80;;;3.90;99.90;;;;;;4439460;32;20204;-72
2022/04/05 04:49:34;;;;;;;18.73;14.03;;;3.90;99.90;;;;;;4439437;32;20158;-72
2022/04/05 04:52:08;;;;;;;18.30;14.00;;;3.90;99.90;;;;;;4442337;32;20140;-72
2022/04/05 04:54:35;;;;;;;19.53;14.37;;;4.00;99.90;;;;;;4443312;32;20191;-72
2022/04/05 04:57:03;;;;;;;20.33;14.73;;;4.00;99.90;;;;;;4441221;32;20192;-72
2022/04/05 04:59:30;;;;;;;19.47;14.90;;;4.10;99.90;;;;;;4427987;32;20194;-72
2022/04/05 05:01:58;;;;;;;20.90;15.10;;;4.10;99.90;;;;;;4442383;32;20162;-72
2022/04/05 05:04:25;;;;;;;18.73;14.30;;;4.10;99.90;;;;;;4441329;32;20217;-72
2022/04/05 05:06:53;;;;;;;22.47;14.67;;;4.10;99.90;;;;;;4440874;32;20229;-72
2022/04/05 05:09:20;;;;;;;20.80;13.87;;;4.10;99.90;;;;;;4440677;32;20188;-72
2022/04/05 05:11:48;;;;;;;19.43;14.37;;;4.10;99.90;;;;;;4441161;32;20177;-72
2022/04/05 05:14:15;;;;;;;20.37;15.10;;;4.10;99.90;;;;;;4440737;32;20513;-72
2022/04/05 05:16:42;;;;;;;23.40;14.97;;;4.10;99.90;;;;;;4441742;32;20177;-72
2022/04/05 05:19:30;;;;;;;22.10;14.77;;;4.10;99.90;;;;;;4441338;32;20357;-72
2022/04/05 05:21:56;;;;;;;22.17;15.43;;;4.10;99.90;;;;;;4440944;32;20187;-72
2022/04/05 05:24:24;;;;;;;18.20;14.27;;;4.20;99.90;;;;;;4442081;32;20248;-72
2022/04/05 05:26:52;;;;;;;19.30;13.80;;;4.20;99.90;;;;;;4440521;32;20206;-72
2022/04/05 05:29:19;;;;;;;18.20;13.83;;;4.20;99.90;;;;;;4442333;32;20188;-72
2022/04/05 05:31:47;;;;;;;18.90;14.03;;;4.30;99.90;;;;;;4440787;32;20203;-72
2022/04/05 05:34:21;;;;;;;16.73;12.80;;;4.40;99.90;;;;;;4440630;32;20176;-72
2022/04/05 05:36:51;;;;;;;17.93;12.60;;;4.50;99.90;;;;;;4441994;32;20197;-72
2022/04/05 05:39:18;;;;;;;18.00;12.60;;;4.50;99.90;;;;;;4440399;32;20243;-72
2022/04/05 05:41:47;;;;;;;16.93;12.53;;;4.50;99.90;;;;;;4441696;32;20163;-72
2022/04/05 05:44:14;;;;;;;19.93;14.03;;;4.50;99.90;;;;;;4440525;32;20231;-72
2022/04/05 05:46:41;;;;;;;19.33;13.70;;;4.40;99.90;;;;;;4439965;32;20222;-72
2022/04/05 05:49:09;;;;;;;20.07;14.57;;;4.40;99.90;;;;;;4440866;32;20211;-72
2022/04/05 05:51:36;;;;;;;19.77;14.90;;;4.40;99.90;;;;;;4441718;32;20143;-72
2022/04/05 05:54:04;;;;;;;20.10;14.57;;;4.30;99.90;;;;;;4441500;32;20150;-72
2022/04/05 05:56:34;;;;;;;20.63;14.73;;;4.30;99.90;;;;;;4440634;32;20185;-72
2022/04/05 05:59:02;;;;;;;21.43;14.80;;;4.30;99.90;;;;;;4439989;32;20240;-72
2022/04/05 06:01:29;;;;;;;21.50;15.23;;;4.30;99.90;;;;;;4440292;32;20217;-72
2022/04/05 06:03:56;;;;;;;21.57;14.57;;;4.30;99.90;;;;;;4439921;32;20222;-72
2022/04/05 06:06:29;;;;;;;22.80;15.70;;;4.20;99.90;;;;;;4440707;32;20217;-72
2022/04/05 06:08:57;;;;;;;21.53;15.37;;;4.20;99.90;;;;;;4439880;32;20216;-72
2022/04/05 06:11:24;;;;;;;21.90;15.63;;;4.20;99.90;;;;;;4439757;32;20184;-72
2022/04/05 06:13:52;;;;;;;20.83;14.80;;;4.20;99.90;;;;;;4439899;32;20227;-72
2022/04/05 06:16:20;;;;;;;20.70;14.77;;;4.20;99.90;;;;;;4441458;32;20178;-72
2022/04/05 06:18:48;;;;;;;18.60;13.33;;;4.30;99.90;;;;;;4439831;32;20224;-72
2022/04/05 06:21:16;;;;;;;15.90;11.47;;;4.40;99.90;;;;;;4440326;32;20174;-72
2022/04/05 06:23:43;;;;;;;14.80;11.33;;;4.50;99.90;;;;;;4441084;32;20492;-72
2022/04/05 06:26:11;;;;;;;15.73;10.93;;;4.50;99.90;;;;;;4440025;32;20224;-72
2022/04/05 06:28:39;;;;;;;14.93;10.30;;;4.60;99.90;;;;;;4441517;32;20177;-71
2022/04/05 06:31:06;;;;;;;15.90;11.43;;;4.60;99.90;;;;;;4440836;32;20176;-73
2022/04/05 06:33:33;;;;;;;15.47;11.50;;;4.70;99.90;;;;;;4440252;32;20242;-72
2022/04/05 06:36:00;;;;;;;16.37;12.37;;;4.70;99.90;;;;;;4439236;32;20209;-72
2022/04/05 06:38:28;;;;;;;16.63;12.47;;;4.80;99.90;;;;;;4439514;32;20170;-72
2022/04/05 06:41:00;;;;;;;18.10;12.07;;;4.80;99.90;;;;;;4441394;32;20221;-72
2022/04/05 06:43:28;;;;;;;16.30;11.63;;;4.80;99.90;;;;;;4440375;32;20189;-72
2022/04/05 06:45:55;;;;;;;16.17;12.40;;;4.80;99.90;;;;;;4440814;32;20240;-73
2022/04/05 06:48:22;;;;;;;13.47;10.17;;;4.90;99.90;;;;;;4440243;32;20176;-73
2022/04/05 06:50:50;;;;;;;11.47;8.40;;;4.90;99.90;;;;;;4441110;32;20187;-71
2022/04/05 06:53:18;;;;;;;9.87;7.13;;;5.10;99.90;;;;;;4440216;32;20228;-71
2022/04/05 06:55:45;;;;;;;8.73;7.10;;;5.30;99.90;;;;;;4441086;32;20148;-70
2022/04/05 06:58:13;;;;;;;7.97;6.93;;;5.40;99.90;;;;;;4447657;32;20185;-72
2022/04/05 07:00:40;;;;;;;9.20;7.13;;;5.60;99.90;;;;;;4441705;32;20197;-70
2022/04/05 07:03:08;;;;;;;9.33;6.77;;;5.70;99.90;;;;;;4455026;32;20209;-68
2022/04/05 07:05:36;;;;;;;7.87;6.67;;;5.80;99.90;;;;;;4457420;32;20139;-71
2022/04/05 07:08:04;;;;;;;7.73;6.40;;;5.80;99.90;;;;;;4454678;32;20184;-71
2022/04/05 07:10:31;;;;;;;6.67;5.73;;;5.90;99.90;;;;;;4455831;32;20219;-68
2022/04/05 07:12:58;;;;;;;6.97;5.73;;;5.90;99.90;;;;;;4454160;32;20547;-70
2022/04/05 07:15:25;;;;;;;6.93;5.77;;;5.90;99.90;;;;;;4455550;32;20506;-71
2022/04/05 07:17:52;;;;;;;6.10;5.00;;;6.00;99.90;;;;;;4454600;32;20183;-71
2022/04/05 07:20:30;;;;;;;7.17;4.53;;;6.00;99.90;;;;;;4454310;32;20232;-71
2022/04/05 07:22:58;;;;;;;5.30;3.80;;;6.20;99.90;;;;;;4453978;32;20240;-72
2022/04/05 07:25:26;;;;;;;3.83;3.00;;;6.30;99.90;;;;;;4454195;32;20184;-71
2022/04/05 07:27:54;;;;;;;5.03;3.10;;;6.30;99.90;;;;;;4454339;32;20180;-71
2022/04/05 07:30:23;;;;;;;4.47;3.00;;;6.30;99.90;;;;;;4454951;32;20391;-72
2022/04/05 07:32:50;;;;;;;3.87;3.30;;;6.20;99.90;;;;;;4455471;32;20188;-71
2022/04/05 07:35:18;;;;;;;5.27;4.27;;;6.10;99.90;;;;;;4455239;32;20450;-72
2022/04/05 07:37:45;;;;;;;5.63;4.50;;;6.00;99.90;;;;;;4454947;32;20591;-72
2022/04/05 07:40:14;;;;;;;5.70;4.63;;;6.00;99.90;;;;;;4454392;32;20192;-72
2022/04/05 07:42:44;;;;;;;6.83;4.93;;;6.00;99.90;;;;;;4455144;32;20230;-73
2022/04/05 07:45:15;;;;;;;8.33;5.17;;;5.90;99.90;;;;;;4445737;32;20183;-74
2022/04/05 07:47:44;;;;;;;6.13;4.60;;;5.90;99.90;;;;;;4442308;32;20188;-72
2022/04/05 07:50:11;;;;;;;4.73;4.03;;;5.90;99.90;;;;;;4444802;32;20182;-73
2022/04/05 07:52:39;;;;;;;3.70;3.00;;;5.90;99.90;;;;;;4438370;32;20207;-74
2022/04/05 07:55:07;;;;;;;4.80;3.53;;;5.90;99.90;;;;;;4438236;32;20326;-69
2022/04/05 07:57:40;;;;;;;5.63;3.30;;;6.00;99.90;;;;;;4438175;32;20197;-70
2022/04/05 08:00:15;;;;;;;6.13;3.33;;;6.00;99.90;;;;;;4440827;32;20190;-69
2022/04/05 08:02:42;;;;;;;5.67;3.63;;;6.10;99.90;;;;;;4437760;32;20178;-70
2022/04/05 08:05:14;;;;;;;6.90;4.40;;;6.10;99.90;;;;;;4438903;32;20229;-71
2022/04/05 08:07:43;;;;;;;6.83;4.40;;;6.10;99.90;;;;;;4438296;32;20183;-70
2022/04/05 08:10:10;;;;;;;5.83;4.20;;;6.10;99.90;;;;;;4438246;32;20211;-70
2022/04/05 08:12:43;;;;;;;5.40;4.50;;;6.40;99.90;;;;;;4439523;32;20149;-70
2022/04/05 08:15:19;;;;;;;5.87;4.57;;;6.50;99.90;;;;;;4438008;32;20470;-71
2022/04/05 08:17:47;;;;;;;6.37;4.10;;;6.70;99.90;;;;;;4437724;32;20183;-71
2022/04/05 08:20:15;;;;;;;5.83;3.83;;;7.00;99.90;;;;;;4438015;32;20186;-70
2022/04/05 08:22:43;;;;;;;5.17;3.47;;;7.00;99.90;;;;;;4439323;32;20165;-70
2022/04/05 08:25:16;;;;;;;5.73;3.60;;;6.90;99.90;;;;;;4439113;32;20185;-70
2022/04/05 08:27:45;;;;;;;5.30;2.67;;;6.80;99.90;;;;;;4437605;32;20196;-70
2022/04/05 08:30:20;;;;;;;4.77;2.60;;;6.80;99.90;;;;;;4437823;32;20169;-71
2022/04/05 08:32:48;;;;;;;3.97;2.00;;;6.80;99.90;;;;;;4438360;32;20426;-73
2022/04/05 08:35:19;;;;;;;4.27;2.27;;;6.90;99.90;;;;;;4439202;32;20142;-72
2022/04/05 08:37:47;;;;;;;3.60;1.80;;;6.90;99.90;;;;;;4438063;32;20234;-72
2022/04/05 08:40:18;;;;;;;3.70;2.00;;;7.00;99.90;;;;;;4438842;32;20147;-74
2022/04/05 08:42:51;;;;;;;3.40;2.27;;;7.00;99.90;;;;;;4439389;32;20178;-74
2022/04/05 08:45:22;;;;;;;4.60;2.10;;;6.90;99.90;;;;;;4438040;32;20248;-73
2022/04/05 08:47:55;;;;;;;4.53;2.23;;;6.80;99.90;;;;;;4438660;32;20488;-74
2022/04/05 08:50:30;;;;;;;4.33;2.37;;;6.90;99.90;;;;;;4437422;32;20178;-74
2022/04/05 08:53:04;;;;;;;4.10;2.50;;;7.00;99.90;;;;;;4437404;32;20213;-75
2022/04/05 08:55:46;;;;;;;4.40;2.20;;;7.00;99.90;;;;;;4437568;32;20239;-74
2022/04/05 08:58:14;;;;;;;4.83;2.10;;;7.20;99.90;;;;;;4437755;32;20200;-75
2022/04/05 09:00:42;;;;;;;4.27;2.20;;;7.40;99.90;;;;;;4438750;32;20172;-74
2022/04/05 09:03:32;;;;;;;3.80;2.20;;;7.90;99.90;;;;;;4437883;32;20182;-74
2022/04/05 09:06:28;;;;;;;4.27;2.07;;;8.30;99.90;;;;;;4438658;32;20146;-73
2022/04/05 09:09:14;;;;;;;5.17;2.00;;;8.50;99.90;;;;;;4438315;32;20178;-75
2022/04/05 09:12:00;;;;;;;3.90;1.87;;;8.80;99.90;;;;;;4437430;32;20493;-76
2022/04/05 09:14:30;;;;;;;4.07;1.70;;;9.00;99.90;;;;;;4438575;32;20371;-74
2022/04/05 09:17:12;;;;;;;4.90;1.70;;;8.70;99.90;;;;;;4438727;32;20210;-75
2022/04/05 09:19:48;;;;;;;4.03;1.70;;;8.70;99.90;;;;;;4437438;32;20469;-74
2022/04/05 09:22:36;;;;;;;3.60;1.80;;;8.80;99.90;;;;;;4439032;32;20130;-74
2022/04/05 09:25:05;;;;;;;4.30;1.90;;;8.90;99.90;;;;;;4437922;32;20171;-73
2022/04/05 09:28:05;;;;;;;4.97;1.90;;;9.20;99.90;;;;;;4437252;32;20233;-74
2022/04/05 09:30:33;;;;;;;4.53;2.20;;;9.60;99.90;;;;;;4439893;32;20194;-73
2022/04/05 09:33:02;;;;;;;3.37;1.90;;;9.60;99.90;;;;;;4437609;32;20423;-73
2022/04/05 09:35:40;;;;;;;3.77;2.13;;;9.80;99.90;;;;;;4437139;32;20174;-73
2022/04/05 09:38:16;;;;;;;4.20;2.20;;;10.00;99.90;;;;;;4441850;32;20233;-72
2022/04/05 09:40:44;;;;;;;4.07;2.10;;;9.40;99.90;;;;;;4449026;32;20178;-73
2022/04/05 09:43:30;;;;;;;3.97;2.20;;;9.30;99.90;;;;;;4456734;32;20176;-73
2022/04/05 09:46:02;;;;;;;3.57;2.10;;;9.40;99.90;;;;;;4455115;32;20416;-73
2022/04/05 09:48:32;;;;;;;5.13;2.40;;;9.10;99.90;;;;;;4456558;32;20580;-74
2022/04/05 09:51:10;;;;;;;4.27;2.23;;;8.70;99.90;;;;;;4456069;32;20415;-74
2022/04/05 09:53:47;;;;;;;7.03;2.10;;;9.10;99.90;;;;;;4455042;32;20228;-74
2022/04/05 09:56:23;;;;;;;5.50;2.10;;;9.00;99.90;;;;;;4455347;32;20216;-74
2022/04/05 09:59:17;;;;;;;4.97;2.10;;;8.70;99.90;;;;;;4456862;32;20233;-74
2022/04/05 10:01:56;;;;;;;4.00;1.90;;;8.40;99.90;;;;;;4454963;32;20193;-73
2022/04/05 10:04:59;;;;;;;10.57;1.97;;;8.50;99.90;;;;;;4454709;32;20531;-73
2022/04/05 10:07:30;;;;;;;5.33;1.80;;;9.20;99.90;;;;;;4457041;32;20384;-73
2022/04/05 10:09:59;;;;;;;5.33;1.80;;;9.60;99.50;;;;;;4454815;32;20444;-74
2022/04/05 10:12:27;;;;;;;5.73;2.03;;;9.60;98.00;;;;;;4455361;32;20217;-73
2022/04/05 10:14:59;;;;;;;7.77;2.03;;;9.60;97.70;;;;;;4455550;32;20495;-73
2022/04/05 10:17:52;;;;;;;4.63;1.60;;;9.50;97.30;;;;;;4456135;32;20166;-73
2022/04/05 10:20:25;;;;;;;11.20;2.27;;;9.40;96.70;;;;;;4454826;32;20237;-73
2022/04/05 10:23:05;;;;;;;3.63;1.40;;;9.30;97.10;;;;;;4455358;32;20198;-72
2022/04/05 10:25:34;;;;;;;5.37;1.57;;;9.60;96.60;;;;;;4455160;32;20511;-73
2022/04/05 10:28:06;;;;;;;6.70;1.70;;;9.50;94.90;;;;;;4454542;32;20212;-74
2022/04/05 10:30:50;;;;;;;3.90;1.43;;;9.40;95.20;;;;;;4455077;32;20386;-75
2022/04/05 10:33:50;;;;;;;6.53;1.77;;;9.40;95.10;;;;;;4455888;32;20142;-74
2022/04/05 10:36:27;;;;;;;4.63;1.80;;;9.20;96.10;;;;;;4394995;32;20209;-74
2022/04/05 10:39:17;;;;;;;7.13;1.60;;;9.40;95.10;;;;;;4395484;32;20477;-73
2022/04/05 10:42:15;;;;;;;8.53;1.93;;;9.20;95.20;;;;;;4408402;32;20604;-73
2022/04/05 10:45:08;;;;;;;7.23;1.70;;;9.60;95.50;;;;;;4395092;32;20421;-73
2022/04/05 10:48:04;;;;;;;5.67;1.60;;;9.60;95.70;;;;;;4379979;32;20187;-73
2022/04/05 10:51:00;;;;;;;6.77;1.60;;;9.20;97.80;;;;;;4379800;32;20710;-73
2022/04/05 10:54:17;;;;;;;4.63;1.53;;;9.00;95.80;;;;;;4391914;32;20143;-74
2022/04/05 10:56:33;;;;;;;3.30;1.90;;;8.70;97.00;;;;;;4379511;32;20179;-73
2022/04/05 10:59:05;;;;;;;5.00;1.87;;;8.70;97.30;;;;;;4380024;32;20406;-73
2022/04/05 11:01:45;;;;;;;6.40;1.90;;;9.30;97.30;;;;;;4379192;32;20197;-72
2022/04/05 11:04:14;;;;;;;3.30;1.50;;;9.30;95.50;;;;;;4379486;32;20572;-73
2022/04/05 11:07:02;;;;;;;9.10;1.90;;;9.00;95.90;;;;;;4379833;32;20265;-73
2022/04/05 11:09:44;;;;;;;6.33;1.90;;;8.70;96.20;;;;;;4379551;32;20198;-73
2022/04/05 11:12:31;;;;;;;5.37;2.00;;;8.50;97.00;;;;;;4394682;32;20227;-74
2022/04/05 11:15:03;;;;;;;6.47;1.50;;;8.70;97.30;;;;;;4439987;32;20142;-74
2022/04/05 11:17:36;;;;;;;9.13;1.77;;;8.40;96.80;;;;;;4439170;32;20178;-73
2022/04/05 11:20:04;;;;;;;5.63;1.60;;;8.20;96.30;;;;;;4438226;32;20415;-73
2022/04/05 11:22:34;;;;;;;3.67;1.53;;;8.10;96.70;;;;;;4440136;32;20678;-72
2022/04/05 11:25:09;;;;;;;5.30;1.57;;;8.20;96.50;;;;;;4438952;32;20501;-72
2022/04/05 11:27:45;;;;;;;5.47;1.60;;;8.20;95.90;;;;;;4440359;32;20158;-74
2022/04/05 11:30:37;;;;;;;5.30;1.97;;;8.10;95.90;;;;;;4440084;32;20254;-73
2022/04/05 11:33:19;;;;;;;8.90;1.77;;;8.30;96.40;;;;;;4438439;32;20175;-72
2022/04/05 11:35:56;;;;;;;5.47;1.90;;;9.00;94.50;;;;;;4438893;32;20174;-74
2022/04/05 11:38:26;;;;;;;6.17;1.67;;;10.00;94.10;;;;;;4439439;32;20173;-73
2022/04/05 11:41:17;;;;;;;5.67;1.50;;;10.80;90.80;;;;;;4439347;32;20178;-70
2022/04/05 11:43:48;;;;;;;3.63;1.70;;;11.60;88.30;;;;;;4438628;32;20191;-69
2022/04/05 11:46:18;;;;;;;5.77;1.60;;;11.70;86.60;;;;;;4449555;32;20185;-70
2022/04/05 11:48:52;;;;;;;6.13;1.60;;;11.60;83.40;;;;;;4453994;32;20436;-69
2022/04/05 11:51:34;;;;;;;6.97;2.17;;;10.80;83.20;;;;;;4450360;32;20454;-69
2022/04/05 11:54:27;;;;;;;5.93;1.67;;;10.80;84.20;;;;;;4447209;32;20257;-73
2022/04/05 11:57:04;;;;;;;6.07;1.97;;;10.60;85.60;;;;;;4450078;32;20166;-73
2022/04/05 11:59:31;;;;;;;4.97;1.50;;;10.70;86.20;;;;;;4453790;32;20205;-73
2022/04/05 12:01:59;;;;;;;4.77;1.70;;;11.40;85.40;;;;;;4452737;32;20202;-72
2022/04/05 12:04:36;;;;;;;4.83;1.60;;;11.80;82.60;;;;;;4455228;32;20195;-71
2022/04/05 12:07:09;;;;;;;5.53;1.60;;;11.90;81.10;;;;;;4453034;32;20460;-72
2022/04/05 12:09:57;;;;;;;5.83;1.70;;;11.30;81.80;;;;;;4453457;32;20246;-73
2022/04/05 12:12:31;;;;;;;3.57;1.60;;;11.70;82.10;;;;;;4454874;32;20213;-73
2022/04/05 12:16:38;;;;;;;9.23;2.47;;;12.20;80.20;;;;;;4453305;32;20455;-73
2022/04/05 12:19:26;;;;;;;5.70;1.70;;;12.00;80.20;;;;;;4451395;32;20219;-74
2022/04/05 12:22:01;;;;;;;3.80;1.50;;;12.10;76.70;;;;;;4454262;32;20161;-74
2022/04/05 12:24:43;;;;;;;3.73;1.77;;;11.90;75.40;;;;;;4452809;32;20236;-72
2022/04/05 12:27:28;;;;;;;6.17;1.60;;;13.20;71.80;;;;;;4443533;32;20174;-72
2022/04/05 12:30:43;;;;;;;7.57;1.90;;;13.50;67.00;;;;;;4455009;32;20149;-73
2022/04/05 12:33:36;;;;;;;6.33;1.60;;;12.70;67.90;;;;;;4379643;32;20489;-73
2022/04/05 12:36:08;;;;;;;5.20;1.63;;;12.30;68.40;;;;;;4378408;32;20171;-74
2022/04/05 12:38:36;;;;;;;6.43;1.57;;;12.80;66.30;;;;;;4378690;32;20180;-72
2022/04/05 12:41:13;;;;;;;7.07;1.77;;;13.40;65.20;;;;;;4378434;32;20167;-73
2022/04/05 12:44:25;;;;;;;5.93;1.83;;;14.70;61.10;;;;;;4378348;32;20201;-73
2022/04/05 12:47:08;;;;;;;5.87;1.80;;;15.10;57.40;;;;;;4390846;32;20488;-74
2022/04/05 12:49:59;;;;;;;;;;;;;;;;;;;;;
2022/04/05 12:52:42;;;;;;;4.03;1.60;;;17.10;52.30;;;;;;4377372;32;20519;-73
2022/04/05 12:55:18;;;;;;;4.10;1.70;;;15.60;51.10;;;;;;4378228;32;20212;-73
2022/04/05 12:57:53;;;;;;;4.50;1.47;;;14.60;54.80;;;;;;4378658;32;20185;-73
2022/04/05 13:00:49;;;;;;;6.10;1.60;;;14.00;56.20;;;;;;4378771;32;20197;-73
2022/04/05 13:03:36;;;;;;;6.37;1.80;;;13.20;57.20;;;;;;4378247;32;20179;-71
2022/04/05 13:06:23;;;;;;;5.30;1.43;;;11.80;62.70;;;;;;4378661;32;20607;-72
2022/04/05 13:09:48;;;;;;;8.47;1.40;;;11.90;63.60;;;;;;4367601;32;20502;-73
2022/04/05 13:12:44;;;;;;;5.40;1.30;;;11.60;61.50;;;;;;4417623;32;20550;-72